Time;durP1;ratioP1;P1;durP2;ratioP2;P2;SDS_P1;SDS_P2;PMS_P1;PMS_P2;Temp;Humidity;BMP_temperature;BMP_pressure;BME280_temperature;BME280_humidity;BME280_pressure;Samples;Min_cycle;Max_cycle;Signal;HPM_P1;HPM_P2
2022/06/18 00:00:58;;;;;;;1.77;1.17;;;;;;;;;;7394144;19;20319;-82
2022/06/18 00:03:24;;;;;;;2.38;1.35;;;;;;;;;;7390907;19;20006;-82
2022/06/18 00:05:54;;;;;;;4.13;1.30;;;;;;;;;;7390829;19;19991;-83
2022/06/18 00:08:29;;;;;;;1.05;0.88;;;;;;;;;;7390153;19;20005;-83
2022/06/18 00:13:39;;;;;;;5.57;1.50;;;;;;;;;;7392263;19;20042;-84
2022/06/18 00:13:46;;;;;;;0.93;0.93;;;;;;;;;;7392250;19;20058;-82
2022/06/18 00:16:15;;;;;;;1.42;1.20;;;;;;;;;;7386831;19;20353;-81
2022/06/18 00:18:41;;;;;;;1.55;0.80;;;;;;;;;;7391566;19;20006;-83
2022/06/18 00:21:08;;;;;;;2.15;0.82;;;;;;;;;;7390964;19;19995;-88
2022/06/18 00:23:35;;;;;;;1.50;1.20;;;;;;;;;;7393318;19;20014;-83
2022/06/18 00:26:01;;;;;;;2.08;1.60;;;;;;;;;;7391885;19;20062;-84
2022/06/18 00:28:29;;;;;;;3.13;1.40;;;;;;;;;;7388337;19;20007;-84
2022/06/18 00:30:55;;;;;;;2.67;1.10;;;;;;;;;;7389087;19;20015;-83
2022/06/18 00:33:21;;;;;;;2.67;1.05;;;;;;;;;;7391620;19;20080;-83
2022/06/18 00:35:49;;;;;;;1.33;0.98;;;;;;;;;;7391006;19;20018;-84
2022/06/18 00:38:22;;;;;;;1.30;1.20;;;;;;;;;;7386178;19;20006;-84
2022/06/18 00:40:48;;;;;;;2.85;1.35;;;;;;;;;;7390490;19;20022;-85
2022/06/18 00:43:18;;;;;;;3.28;1.25;;;;;;;;;;7391226;19;20007;-83
2022/06/18 00:45:44;;;;;;;2.15;1.40;;;;;;;;;;7388118;19;20037;-83
2022/06/18 00:48:36;;;;;;;1.23;1.10;;;;;;;;;;7389461;19;20010;-84
2022/06/18 00:51:25;;;;;;;1.52;1.00;;;;;;;;;;7389569;19;20045;-84
2022/06/18 00:54:02;;;;;;;1.17;1.00;;;;;;;;;;7391435;19;20062;-83
2022/06/18 00:56:41;;;;;;;3.22;1.20;;;;;;;;;;7386005;19;19995;-83
2022/06/18 00:59:31;;;;;;;1.83;1.00;;;;;;;;;;7386159;19;19999;-85
2022/06/18 01:01:57;;;;;;;1.45;1.10;;;;;;;;;;7388317;19;20020;-84
2022/06/18 01:04:34;;;;;;;1.77;1.38;;;;;;;;;;7389670;19;20020;-83
2022/06/18 01:07:19;;;;;;;2.90;1.25;;;;;;;;;;7387510;19;19995;-83
2022/06/18 01:09:47;;;;;;;1.20;1.10;;;;;;;;;;7385423;19;19994;-84
2022/06/18 01:12:13;;;;;;;1.52;1.20;;;;;;;;;;7396043;19;20014;-83
2022/06/18 01:14:39;;;;;;;2.20;1.38;;;;;;;;;;7396666;19;20345;-83
2022/06/18 01:17:06;;;;;;;3.88;1.33;;;;;;;;;;7392807;19;20533;-83
2022/06/18 01:19:40;;;;;;;1.65;1.13;;;;;;;;;;7394589;19;20010;-84
2022/06/18 01:22:24;;;;;;;1.60;1.17;;;;;;;;;;7392997;19;20034;-84
2022/06/18 01:24:49;;;;;;;1.52;1.20;;;;;;;;;;7397618;19;20026;-84
2022/06/18 01:27:15;;;;;;;1.55;1.27;;;;;;;;;;7394193;19;20014;-83
2022/06/18 01:29:40;;;;;;;1.75;1.00;;;;;;;;;;7396581;19;20222;-83
2022/06/18 01:32:08;;;;;;;1.92;1.15;;;;;;;;;;7391741;19;20480;-83
2022/06/18 01:34:35;;;;;;;1.30;1.20;;;;;;;;;;7392587;19;19998;-84
2022/06/18 01:37:02;;;;;;;2.47;1.00;;;;;;;;;;7393188;19;20322;-84
2022/06/18 01:39:32;;;;;;;3.30;1.50;;;;;;;;;;7396666;19;20006;-83
2022/06/18 01:42:08;;;;;;;2.28;1.02;;;;;;;;;;7396882;19;19999;-84
2022/06/18 01:44:53;;;;;;;5.80;1.55;;;;;;;;;;7393460;19;20003;-83
2022/06/18 01:47:21;;;;;;;1.83;1.10;;;;;;;;;;7393047;19;20022;-84
2022/06/18 01:49:49;;;;;;;2.92;1.70;;;;;;;;;;7396609;19;20062;-84
2022/06/18 01:52:18;;;;;;;2.70;1.15;;;;;;;;;;7392702;19;20027;-83
2022/06/18 01:54:48;;;;;;;3.90;1.40;;;;;;;;;;7393975;19;20011;-83
2022/06/18 01:57:20;;;;;;;1.45;1.08;;;;;;;;;;7390767;19;20331;-83
2022/06/18 01:59:53;;;;;;;1.42;1.20;;;;;;;;;;7395265;19;20006;-84
2022/06/18 02:02:19;;;;;;;2.20;1.17;;;;;;;;;;7390582;19;20002;-83
2022/06/18 02:04:46;;;;;;;1.13;1.10;;;;;;;;;;7392306;19;20010;-83
2022/06/18 02:07:14;;;;;;;2.95;1.55;;;;;;;;;;7392530;19;19991;-84
2022/06/18 02:10:04;;;;;;;2.13;1.58;;;;;;;;;;7395005;19;19998;-84
2022/06/18 02:13:15;;;;;;;1.55;1.27;;;;;;;;;;7392462;19;20011;-84
2022/06/18 02:16:04;;;;;;;1.63;1.50;;;;;;;;;;7393131;19;19998;-83
2022/06/18 02:18:30;;;;;;;1.52;1.13;;;;;;;;;;7395062;19;20002;-83
2022/06/18 02:20:58;;;;;;;2.83;1.60;;;;;;;;;;7397498;19;20516;-84
2022/06/18 02:23:24;;;;;;;3.20;1.50;;;;;;;;;;7393766;19;20021;-84
2022/06/18 02:25:50;;;;;;;6.05;1.85;;;;;;;;;;7396213;19;20007;-83
2022/06/18 02:28:23;;;;;;;2.28;1.05;;;;;;;;;;7393312;19;20006;-83
2022/06/18 02:30:49;;;;;;;1.27;1.17;;;;;;;;;;7391185;19;19998;-83
2022/06/18 02:33:54;;;;;;;2.17;1.20;;;;;;;;;;7391549;19;20015;-84
2022/06/18 02:36:23;;;;;;;2.28;1.30;;;;;;;;;;7393658;19;20013;-84
2022/06/18 02:38:54;;;;;;;2.35;1.08;;;;;;;;;;7394042;19;20021;-84
2022/06/18 02:41:21;;;;;;;3.17;1.30;;;;;;;;;;7394675;19;19999;-84
2022/06/18 02:43:46;;;;;;;3.72;1.42;;;;;;;;;;7390550;19;20003;-84
2022/06/18 02:46:13;;;;;;;1.55;1.20;;;;;;;;;;7391818;19;20018;-83
2022/06/18 02:48:39;;;;;;;1.63;1.10;;;;;;;;;;7391725;19;20053;-84
2022/06/18 02:51:06;;;;;;;3.28;1.20;;;;;;;;;;7393629;19;20002;-84
2022/06/18 02:53:32;;;;;;;1.42;1.20;;;;;;;;;;7391445;19;20024;-83
2022/06/18 02:56:04;;;;;;;1.30;1.20;;;;;;;;;;7388972;19;19999;-83
2022/06/18 02:58:36;;;;;;;1.15;1.00;;;;;;;;;;7390933;19;20465;-84
2022/06/18 03:01:06;;;;;;;1.15;1.00;;;;;;;;;;7391872;19;20354;-84
2022/06/18 03:03:35;;;;;;;1.33;1.23;;;;;;;;;;7390929;19;20019;-83
2022/06/18 03:06:01;;;;;;;0.90;0.90;;;;;;;;;;7390396;19;20006;-86
2022/06/18 03:08:28;;;;;;;1.25;1.15;;;;;;;;;;7392524;19;20006;-83
2022/06/18 03:13:39;;;;;;;2.40;1.27;;;;;;;;;;7394620;19;20028;-84
2022/06/18 03:16:09;;;;;;;1.67;1.38;;;;;;;;;;7388770;19;20018;-84
2022/06/18 03:18:36;;;;;;;2.35;1.65;;;;;;;;;;7391777;19;20017;-84
2022/06/18 03:21:23;;;;;;;2.55;1.10;;;;;;;;;;7390304;19;20450;-84
2022/06/18 03:23:49;;;;;;;3.25;1.13;;;;;;;;;;7394557;19;20024;-84
2022/06/18 03:26:16;;;;;;;3.08;1.20;;;;;;;;;;7390047;19;20445;-83
2022/06/18 03:28:42;;;;;;;1.40;1.20;;;;;;;;;;7388500;19;20080;-84
2022/06/18 03:31:07;;;;;;;2.72;1.20;;;;;;;;;;7389757;19;20002;-84
2022/06/18 03:33:32;;;;;;;1.63;1.15;;;;;;;;;;7391532;19;19999;-84
2022/06/18 03:35:59;;;;;;;1.63;1.50;;;;;;;;;;7390954;19;19998;-84
2022/06/18 03:38:25;;;;;;;2.03;1.40;;;;;;;;;;7393046;19;20019;-84
2022/06/18 03:40:51;;;;;;;5.28;1.80;;;;;;;;;;7389257;19;19995;-84
2022/06/18 03:43:19;;;;;;;1.77;1.10;;;;;;;;;;7389320;19;20323;-84
2022/06/18 03:45:47;;;;;;;1.42;1.25;;;;;;;;;;7392642;19;20506;-83
2022/06/18 03:48:43;;;;;;;2.08;1.23;;;;;;;;;;7391111;19;20011;-84
2022/06/18 03:51:10;;;;;;;2.08;1.48;;;;;;;;;;7389680;19;20070;-84
2022/06/18 03:53:35;;;;;;;2.85;1.27;;;;;;;;;;7391802;19;20002;-83
2022/06/18 03:56:01;;;;;;;2.40;1.25;;;;;;;;;;7388706;19;20003;-85
2022/06/18 03:58:28;;;;;;;2.50;1.23;;;;;;;;;;7392622;19;20072;-83
2022/06/18 04:00:54;;;;;;;3.28;1.33;;;;;;;;;;7393102;19;20003;-83
2022/06/18 04:03:20;;;;;;;2.60;1.52;;;;;;;;;;7389119;19;20490;-84
2022/06/18 04:05:45;;;;;;;1.65;1.48;;;;;;;;;;7388672;19;20020;-84
2022/06/18 04:08:14;;;;;;;1.10;0.95;;;;;;;;;;7388992;19;20025;-83
2022/06/18 04:10:40;;;;;;;3.50;1.40;;;;;;;;;;7390200;19;20011;-84
2022/06/18 04:13:06;;;;;;;3.08;1.25;;;;;;;;;;7388441;19;20480;-84
2022/06/18 04:15:31;;;;;;;1.17;1.08;;;;;;;;;;7387391;19;20026;-84
2022/06/18 04:17:57;;;;;;;2.08;1.60;;;;;;;;;;7387981;19;19998;-84
2022/06/18 04:20:25;;;;;;;2.80;1.80;;;;;;;;;;7390198;19;20023;-84
2022/06/18 04:22:51;;;;;;;2.15;1.38;;;;;;;;;;7391165;19;20346;-84
2022/06/18 04:25:17;;;;;;;4.85;1.60;;;;;;;;;;7389402;19;19998;-84
2022/06/18 04:27:42;;;;;;;2.88;1.40;;;;;;;;;;7390724;19;20015;-84
2022/06/18 04:30:09;;;;;;;1.60;1.30;;;;;;;;;;7387659;19;20031;-84
2022/06/18 04:32:36;;;;;;;2.45;1.25;;;;;;;;;;7389089;19;20099;-84
2022/06/18 04:35:03;;;;;;;1.35;1.00;;;;;;;;;;7390493;19;20501;-84
2022/06/18 04:37:29;;;;;;;3.53;1.70;;;;;;;;;;7388657;19;20010;-83
2022/06/18 04:39:54;;;;;;;11.10;1.42;;;;;;;;;;7387909;19;20002;-85
2022/06/18 04:42:19;;;;;;;1.08;0.98;;;;;;;;;;7385297;19;20030;-84
2022/06/18 04:44:44;;;;;;;6.60;1.52;;;;;;;;;;7390334;19;20003;-85
2022/06/18 04:47:10;;;;;;;1.45;1.33;;;;;;;;;;7399000;19;20003;-84
2022/06/18 04:49:35;;;;;;;6.25;1.70;;;;;;;;;;7398721;19;20002;-84
2022/06/18 04:52:01;;;;;;;1.67;1.48;;;;;;;;;;7394147;19;20007;-84
2022/06/18 04:54:26;;;;;;;2.15;1.20;;;;;;;;;;7395036;19;19999;-84
2022/06/18 04:56:51;;;;;;;1.75;1.23;;;;;;;;;;7394783;19;19995;-84
2022/06/18 04:59:16;;;;;;;8.90;1.73;;;;;;;;;;7396994;19;20002;-85
2022/06/18 05:01:43;;;;;;;1.13;0.98;;;;;;;;;;7390983;19;20002;-86
2022/06/18 05:04:09;;;;;;;5.28;1.27;;;;;;;;;;7394315;19;20030;-84
2022/06/18 05:06:35;;;;;;;4.97;2.00;;;;;;;;;;7393575;19;20336;-83
2022/06/18 05:09:00;;;;;;;2.17;1.75;;;;;;;;;;7392449;19;19998;-84
2022/06/18 05:11:25;;;;;;;3.25;1.95;;;;;;;;;;7393467;19;20010;-84
2022/06/18 05:13:52;;;;;;;2.58;1.40;;;;;;;;;;7396782;19;20040;-84
2022/06/18 05:16:17;;;;;;;3.35;1.67;;;;;;;;;;7393448;19;20003;-85
2022/06/18 05:18:46;;;;;;;2.85;1.48;;;;;;;;;;7392310;19;20028;-84
2022/06/18 05:21:11;;;;;;;1.35;1.20;;;;;;;;;;7392609;19;20558;-83
2022/06/18 05:23:37;;;;;;;3.03;1.70;;;;;;;;;;7397537;19;20011;-84
2022/06/18 05:26:02;;;;;;;1.23;1.13;;;;;;;;;;7395001;19;19991;-84
2022/06/18 05:28:28;;;;;;;8.75;1.85;;;;;;;;;;7394783;19;20517;-86
2022/06/18 05:30:54;;;;;;;4.20;2.05;;;;;;;;;;7397062;19;20044;-84
2022/06/18 05:33:19;;;;;;;1.52;1.40;;;;;;;;;;7392666;19;20018;-85
2022/06/18 05:35:45;;;;;;;1.70;1.50;;;;;;;;;;7391838;19;19998;-84
2022/06/18 05:38:16;;;;;;;3.70;1.30;;;;;;;;;;7393301;19;19998;-84
2022/06/18 05:40:42;;;;;;;2.25;1.40;;;;;;;;;;7396640;19;20010;-83
2022/06/18 05:43:07;;;;;;;3.80;1.50;;;;;;;;;;7391860;19;20010;-84
2022/06/18 05:45:33;;;;;;;1.52;1.42;;;;;;;;;;7395141;19;20115;-84
2022/06/18 05:47:58;;;;;;;5.13;1.50;;;;;;;;;;7392468;19;19999;-84
2022/06/18 05:50:25;;;;;;;1.33;1.23;;;;;;;;;;7392750;19;20550;-83
2022/06/18 05:52:50;;;;;;;2.10;1.38;;;;;;;;;;7388275;19;20003;-83
2022/06/18 05:55:20;;;;;;;3.38;1.00;;;;;;;;;;7394317;19;20102;-84
2022/06/18 05:57:48;;;;;;;2.00;1.40;;;;;;;;;;7389998;19;20027;-84
2022/06/18 06:00:16;;;;;;;2.30;1.40;;;;;;;;;;7391381;19;20090;-83
2022/06/18 06:02:41;;;;;;;2.38;1.42;;;;;;;;;;7390334;19;20014;-84
2022/06/18 06:05:07;;;;;;;1.83;1.30;;;;;;;;;;7393433;19;20299;-84
2022/06/18 06:07:32;;;;;;;1.67;1.35;;;;;;;;;;7393301;19;20462;-83
2022/06/18 06:12:49;;;;;;;2.50;1.55;;;;;;;;;;7387760;19;20078;-83
2022/06/18 06:15:14;;;;;;;4.82;1.40;;;;;;;;;;7390595;19;20355;-83
2022/06/18 06:17:40;;;;;;;1.40;1.27;;;;;;;;;;7390582;19;20098;-84
2022/06/18 06:20:18;;;;;;;1.45;1.15;;;;;;;;;;7393498;19;20370;-84
2022/06/18 06:22:43;;;;;;;1.95;1.20;;;;;;;;;;7392656;19;20437;-85
2022/06/18 06:25:10;;;;;;;2.20;1.38;;;;;;;;;;7391326;19;20457;-84
2022/06/18 06:27:35;;;;;;;1.10;1.00;;;;;;;;;;7395292;19;19999;-85
2022/06/18 06:30:01;;;;;;;1.60;0.90;;;;;;;;;;7390738;19;20035;-84
2022/06/18 06:32:26;;;;;;;1.30;1.20;;;;;;;;;;7392387;19;20016;-84
2022/06/18 06:34:52;;;;;;;1.40;1.30;;;;;;;;;;7393949;19;20477;-84
2022/06/18 06:37:26;;;;;;;1.05;0.90;;;;;;;;;;7396320;19;20010;-84
2022/06/18 06:39:51;;;;;;;1.27;1.13;;;;;;;;;;7392914;19;20002;-84
2022/06/18 06:42:16;;;;;;;1.35;1.17;;;;;;;;;;7389709;19;19998;-84
2022/06/18 06:44:42;;;;;;;2.45;1.02;;;;;;;;;;7394735;19;20010;-83
2022/06/18 06:47:08;;;;;;;1.00;1.00;;;;;;;;;;7392543;19;20003;-84
2022/06/18 06:49:33;;;;;;;2.47;1.27;;;;;;;;;;7394293;19;20426;-84
2022/06/18 06:51:58;;;;;;;4.97;1.02;;;;;;;;;;7388877;19;20022;-83
2022/06/18 06:54:24;;;;;;;2.10;1.08;;;;;;;;;;7390224;19;20054;-84
2022/06/18 06:59:33;;;;;;;1.27;1.10;;;;;;;;;;7392311;19;20037;-84
2022/06/18 07:01:58;;;;;;;2.28;1.15;;;;;;;;;;7391659;19;20011;-84
2022/06/18 07:04:24;;;;;;;1.88;1.23;;;;;;;;;;7389771;19;19995;-84
2022/06/18 07:06:49;;;;;;;1.85;1.25;;;;;;;;;;7390355;19;19998;-85
2022/06/18 07:09:14;;;;;;;2.38;1.00;;;;;;;;;;7388758;19;20027;-84
2022/06/18 07:11:40;;;;;;;1.63;1.08;;;;;;;;;;7392067;19;20003;-85
2022/06/18 07:14:06;;;;;;;2.65;1.50;;;;;;;;;;7393295;19;20024;-84
2022/06/18 07:16:32;;;;;;;3.10;1.20;;;;;;;;;;7389595;19;20014;-84
2022/06/18 07:18:58;;;;;;;1.52;0.98;;;;;;;;;;7388190;19;20366;-85
2022/06/18 07:21:24;;;;;;;2.20;1.23;;;;;;;;;;7388887;19;20017;-84
2022/06/18 07:23:49;;;;;;;1.20;0.95;;;;;;;;;;7389090;19;19994;-84
2022/06/18 07:26:17;;;;;;;2.35;0.88;;;;;;;;;;7392895;19;20460;-84
2022/06/18 07:28:43;;;;;;;1.67;0.90;;;;;;;;;;7388556;19;20529;-84
2022/06/18 07:31:15;;;;;;;3.88;1.33;;;;;;;;;;7388095;19;19995;-84
2022/06/18 07:33:43;;;;;;;1.02;1.00;;;;;;;;;;7391781;19;20018;-85
2022/06/18 07:36:08;;;;;;;6.00;1.10;;;;;;;;;;7387870;19;20475;-85
2022/06/18 07:38:34;;;;;;;1.63;0.90;;;;;;;;;;7391932;19;20008;-84
2022/06/18 07:40:59;;;;;;;1.98;1.30;;;;;;;;;;7390261;19;20334;-84
2022/06/18 07:43:34;;;;;;;1.10;1.00;;;;;;;;;;7392051;19;20010;-84
2022/06/18 07:46:01;;;;;;;1.42;0.95;;;;;;;;;;7389111;19;20093;-84
2022/06/18 07:48:27;;;;;;;3.38;1.17;;;;;;;;;;7389788;19;20362;-84
2022/06/18 07:50:52;;;;;;;1.05;0.70;;;;;;;;;;7389918;19;20454;-85
2022/06/18 07:53:20;;;;;;;0.93;0.93;;;;;;;;;;7391429;19;19999;-84
2022/06/18 07:55:46;;;;;;;1.00;1.00;;;;;;;;;;7386951;19;19990;-84
2022/06/18 07:58:12;;;;;;;0.63;0.63;;;;;;;;;;7387255;19;19991;-84
2022/06/18 08:00:42;;;;;;;1.80;0.82;;;;;;;;;;7389142;19;20018;-85
2022/06/18 08:03:08;;;;;;;0.80;0.80;;;;;;;;;;7386290;19;20014;-84
2022/06/18 08:05:33;;;;;;;1.33;0.98;;;;;;;;;;7387027;19;20010;-86
2022/06/18 08:07:59;;;;;;;1.45;1.00;;;;;;;;;;7391544;19;20070;-84
2022/06/18 08:10:24;;;;;;;1.73;1.10;;;;;;;;;;7390484;19;20007;-84
2022/06/18 08:13:46;;;;;;;0.82;0.82;;;;;;;;;;7390624;19;20017;-84
2022/06/18 08:16:14;;;;;;;0.70;0.70;;;;;;;;;;7383625;19;20111;-84
2022/06/18 08:18:39;;;;;;;0.90;0.90;;;;;;;;;;7386738;19;19995;-84
2022/06/18 08:21:10;;;;;;;4.00;1.00;;;;;;;;;;7393548;19;20039;-84
2022/06/18 08:23:36;;;;;;;0.85;0.85;;;;;;;;;;7397639;19;20139;-85
2022/06/18 08:26:02;;;;;;;1.00;0.88;;;;;;;;;;7399721;19;19990;-84
2022/06/18 08:28:28;;;;;;;1.00;0.70;;;;;;;;;;7398245;19;20001;-84
2022/06/18 08:30:53;;;;;;;1.30;0.80;;;;;;;;;;7398453;19;20013;-85
2022/06/18 08:33:18;;;;;;;0.70;0.70;;;;;;;;;;7396835;19;20018;-85
2022/06/18 08:35:44;;;;;;;1.20;0.70;;;;;;;;;;7397041;19;20028;-84
2022/06/18 08:38:10;;;;;;;2.55;0.80;;;;;;;;;;7393899;19;20019;-84
2022/06/18 08:40:57;;;;;;;0.68;0.68;;;;;;;;;;7394940;19;20010;-84
2022/06/18 08:44:00;;;;;;;0.80;0.75;;;;;;;;;;7397466;19;19999;-85
2022/06/18 08:47:00;;;;;;;0.95;0.73;;;;;;;;;;7393749;19;20015;-85
2022/06/18 08:49:34;;;;;;;1.73;1.00;;;;;;;;;;7397928;19;20006;-85
2022/06/18 08:52:24;;;;;;;1.17;0.90;;;;;;;;;;7393185;19;20065;-85
2022/06/18 08:55:03;;;;;;;1.38;0.80;;;;;;;;;;7394490;19;20401;-84
2022/06/18 08:57:36;;;;;;;1.02;0.90;;;;;;;;;;7395954;19;20014;-84
2022/06/18 09:00:18;;;;;;;1.65;0.80;;;;;;;;;;7395784;19;20006;-86
2022/06/18 09:02:58;;;;;;;0.77;0.60;;;;;;;;;;7391389;19;20010;-85
2022/06/18 09:05:35;;;;;;;1.90;0.80;;;;;;;;;;7393561;19;20002;-85
2022/06/18 09:08:26;;;;;;;1.08;0.70;;;;;;;;;;7396223;19;19998;-85
2022/06/18 09:11:11;;;;;;;1.60;1.00;;;;;;;;;;7396779;19;20386;-85
2022/06/18 09:13:48;;;;;;;3.97;1.15;;;;;;;;;;7393773;19;20010;-85
2022/06/18 09:16:17;;;;;;;1.70;0.80;;;;;;;;;;7392707;19;20001;-85
2022/06/18 09:18:50;;;;;;;1.48;0.90;;;;;;;;;;7388853;19;20002;-85
2022/06/18 09:21:21;;;;;;;0.75;0.65;;;;;;;;;;7385426;19;20111;-84
2022/06/18 09:23:51;;;;;;;2.58;1.02;;;;;;;;;;7392363;19;20003;-84
2022/06/18 09:26:24;;;;;;;1.75;0.70;;;;;;;;;;7393144;19;20010;-84
2022/06/18 09:29:01;;;;;;;3.38;0.73;;;;;;;;;;7393527;19;20014;-83
2022/06/18 09:31:38;;;;;;;2.15;0.60;;;;;;;;;;7389813;19;20014;-83
2022/06/18 09:34:36;;;;;;;0.88;0.60;;;;;;;;;;7391408;19;20086;-83
2022/06/18 09:37:07;;;;;;;1.25;0.68;;;;;;;;;;7396573;19;20015;-83
2022/06/18 09:39:41;;;;;;;7.43;1.27;;;;;;;;;;7392073;19;20025;-83
2022/06/18 09:42:16;;;;;;;1.13;0.65;;;;;;;;;;7390183;19;20318;-83
2022/06/18 09:44:52;;;;;;;1.20;0.70;;;;;;;;;;7395369;19;20034;-84
2022/06/18 09:47:27;;;;;;;2.10;1.08;;;;;;;;;;7390518;19;20080;-84
2022/06/18 09:49:52;;;;;;;1.02;0.85;;;;;;;;;;7392384;19;20040;-84
2022/06/18 09:52:34;;;;;;;1.10;0.70;;;;;;;;;;7391759;19;20083;-83
2022/06/18 09:55:43;;;;;;;0.70;0.68;;;;;;;;;;7394460;19;20014;-83
2022/06/18 09:58:15;;;;;;;0.65;0.65;;;;;;;;;;7393654;19;20007;-82
2022/06/18 10:00:42;;;;;;;0.65;0.65;;;;;;;;;;7396947;19;20021;-85
2022/06/18 10:09:28;;;;;;;0.50;0.50;;;;;;;;;;7393033;19;20036;-84
2022/06/18 10:11:53;;;;;;;0.50;0.50;;;;;;;;;;7388516;19;20499;-84
2022/06/18 10:14:21;;;;;;;0.95;0.60;;;;;;;;;;7394944;19;20092;-84
2022/06/18 10:17:05;;;;;;;1.77;0.70;;;;;;;;;;7392281;19;20014;-84
2022/06/18 10:19:53;;;;;;;1.00;0.90;;;;;;;;;;7401311;19;20027;-85
2022/06/18 10:22:22;;;;;;;1.58;0.80;;;;;;;;;;7398591;19;20359;-83
2022/06/18 10:24:53;;;;;;;0.82;0.60;;;;;;;;;;7397564;19;20027;-84
2022/06/18 10:27:32;;;;;;;2.05;0.80;;;;;;;;;;7394673;19;20473;-86
2022/06/18 10:30:08;;;;;;;0.50;0.50;;;;;;;;;;7393404;19;20010;-85
2022/06/18 10:32:39;;;;;;;2.17;0.77;;;;;;;;;;7394557;19;20018;-85
2022/06/18 10:35:51;;;;;;;1.48;0.60;;;;;;;;;;7399777;19;20014;-85
2022/06/18 10:38:33;;;;;;;1.40;0.63;;;;;;;;;;7405657;19;20007;-86
2022/06/18 10:41:35;;;;;;;0.63;0.63;;;;;;;;;;7400059;19;20023;-87
2022/06/18 10:44:00;;;;;;;1.75;0.70;;;;;;;;;;7396369;19;20007;-84
2022/06/18 10:46:26;;;;;;;0.80;0.50;;;;;;;;;;7402158;19;20011;-85
2022/06/18 10:49:03;;;;;;;0.93;0.55;;;;;;;;;;7399068;19;19999;-82
2022/06/18 10:51:40;;;;;;;0.82;0.60;;;;;;;;;;7399116;19;20022;-85
2022/06/18 10:54:06;;;;;;;0.95;0.77;;;;;;;;;;7399140;19;20007;-85
2022/06/18 10:56:44;;;;;;;0.50;0.50;;;;;;;;;;7401532;19;20014;-83
2022/06/18 10:59:09;;;;;;;1.05;1.00;;;;;;;;;;7398473;19;19994;-84
2022/06/18 11:01:44;;;;;;;3.00;0.70;;;;;;;;;;7395231;19;20114;-86
2022/06/18 11:04:24;;;;;;;0.70;0.70;;;;;;;;;;7397117;19;19994;-84
2022/06/18 11:06:57;;;;;;;0.88;0.65;;;;;;;;;;7402117;19;20043;-84
2022/06/18 11:10:00;;;;;;;0.80;0.80;;;;;;;;;;7402058;19;20007;-83
2022/06/18 11:13:28;;;;;;;1.25;0.80;;;;;;;;;;7397353;19;20027;-83
2022/06/18 11:16:17;;;;;;;1.98;0.75;;;;;;;;;;7393924;19;20187;-84
2022/06/18 11:18:43;;;;;;;0.85;0.80;;;;;;;;;;7394962;19;20003;-85
2022/06/18 11:21:14;;;;;;;0.63;0.63;;;;;;;;;;7392572;19;20010;-83
2022/06/18 11:23:49;;;;;;;2.38;0.70;;;;;;;;;;7393807;19;19995;-84
2022/06/18 11:26:22;;;;;;;0.75;0.50;;;;;;;;;;7396171;19;20006;-83
2022/06/18 11:28:50;;;;;;;1.90;0.80;;;;;;;;;;7399188;19;20003;-84
2022/06/18 11:31:42;;;;;;;1.73;0.77;;;;;;;;;;7394611;19;20056;-84
2022/06/18 11:34:21;;;;;;;1.40;0.80;;;;;;;;;;7394586;19;20040;-84
2022/06/18 11:36:49;;;;;;;2.95;0.60;;;;;;;;;;7394628;19;20010;-83
2022/06/18 11:39:38;;;;;;;0.80;0.80;;;;;;;;;;7394924;19;20018;-82
2022/06/18 11:42:08;;;;;;;2.90;0.77;;;;;;;;;;7400407;19;20054;-81
2022/06/18 11:44:52;;;;;;;0.65;0.60;;;;;;;;;;7390534;19;20452;-83
2022/06/18 11:47:25;;;;;;;1.27;0.65;;;;;;;;;;7393898;19;20017;-84
2022/06/18 11:50:25;;;;;;;2.58;0.80;;;;;;;;;;7392149;19;20002;-82
2022/06/18 11:53:05;;;;;;;0.80;0.80;;;;;;;;;;7389427;19;20020;-82
2022/06/18 11:55:43;;;;;;;1.52;0.80;;;;;;;;;;7385734;19;20357;-81
2022/06/18 11:58:19;;;;;;;7.53;0.73;;;;;;;;;;7391781;19;20013;-81
2022/06/18 12:01:03;;;;;;;0.80;0.80;;;;;;;;;;7390399;19;20015;-83
2022/06/18 12:03:49;;;;;;;0.70;0.70;;;;;;;;;;7389597;19;20115;-82
2022/06/18 12:06:33;;;;;;;2.35;0.80;;;;;;;;;;7391852;19;20042;-83
2022/06/18 12:08:58;;;;;;;1.67;0.82;;;;;;;;;;7392120;19;20489;-82
2022/06/18 12:11:47;;;;;;;4.57;0.90;;;;;;;;;;7389972;19;20081;-83
2022/06/18 12:14:26;;;;;;;0.98;0.82;;;;;;;;;;7392471;19;20002;-84
2022/06/18 12:16:57;;;;;;;1.85;0.70;;;;;;;;;;7386960;19;20015;-81
2022/06/18 12:20:06;;;;;;;0.75;0.75;;;;;;;;;;7389812;19;19999;-81
2022/06/18 12:22:53;;;;;;;;;;;;;;;;;;7390765;19;20147;-83
2022/06/18 12:25:31;;;;;;;1.35;0.60;;;;;;;;;;7391392;19;19943;-82
2022/06/18 12:28:30;;;;;;;1.35;0.77;;;;;;;;;;7390242;19;20009;-81
2022/06/18 12:31:31;;;;;;;1.75;0.68;;;;;;;;;;7392249;19;20048;-81
2022/06/18 12:34:08;;;;;;;0.60;0.60;;;;;;;;;;7390636;19;20018;-81
2022/06/18 12:36:46;;;;;;;2.78;0.75;;;;;;;;;;7386806;19;20017;-83
2022/06/18 12:39:17;;;;;;;3.38;0.80;;;;;;;;;;7388937;19;20010;-81
2022/06/18 12:41:51;;;;;;;0.90;0.65;;;;;;;;;;7388904;19;20015;-81
2022/06/18 12:44:28;;;;;;;2.17;0.67;;;;;;;;;;7389639;19;20009;-81
2022/06/18 12:47:22;;;;;;;1.00;0.90;;;;;;;;;;7389258;19;20263;-82
2022/06/18 12:49:57;;;;;;;2.22;1.00;;;;;;;;;;7391590;19;20052;-82
2022/06/18 12:52:31;;;;;;;;;;;;;;;;;;7387054;19;20362;-81
2022/06/18 12:55:38;;;;;;;3.60;0.98;;;;;;;;;;7390124;19;19918;-81
2022/06/18 12:58:25;;;;;;;1.90;0.80;;;;;;;;;;7390167;19;20010;-81
2022/06/18 13:00:57;;;;;;;1.05;0.80;;;;;;;;;;7387782;19;20024;-81
2022/06/18 13:03:43;;;;;;;2.42;0.80;;;;;;;;;;7389448;19;20014;-81
2022/06/18 13:06:11;;;;;;;5.60;0.80;;;;;;;;;;7391677;19;20015;-83
2022/06/18 13:08:55;;;;;;;4.00;1.00;;;;;;;;;;7397449;19;20014;-84
2022/06/18 13:11:33;;;;;;;2.17;1.10;;;;;;;;;;7394759;19;20332;-81
2022/06/18 13:14:04;;;;;;;1.75;1.02;;;;;;;;;;7396820;19;20130;-81
2022/06/18 13:16:39;;;;;;;3.22;0.77;;;;;;;;;;7394444;19;20014;-81
2022/06/18 13:19:12;;;;;;;5.00;0.70;;;;;;;;;;7396964;19;20354;-82
2022/06/18 13:21:39;;;;;;;1.95;0.85;;;;;;;;;;7393172;19;20001;-82
2022/06/18 13:30:13;;;;;;;2.33;1.00;;;;;;;;;;7396647;19;20011;-82
2022/06/18 13:32:38;;;;;;;3.85;1.00;;;;;;;;;;7393879;19;20031;-81
2022/06/18 13:35:28;;;;;;;3.23;1.10;;;;;;;;;;7394850;19;20003;-83
2022/06/18 13:38:18;;;;;;;6.32;2.85;;;;;;;;;;7395808;19;20295;-82
2022/06/18 13:40:53;;;;;;;4.20;1.13;;;;;;;;;;7395184;19;20583;-83
2022/06/18 13:43:37;;;;;;;4.60;1.83;;;;;;;;;;7391197;19;19999;-82
2022/06/18 13:46:21;;;;;;;4.90;1.30;;;;;;;;;;7393059;19;20002;-82
2022/06/18 13:48:54;;;;;;;4.10;1.10;;;;;;;;;;7395715;19;20321;-83
2022/06/18 13:51:35;;;;;;;4.22;1.17;;;;;;;;;;7392464;19;20006;-84
2022/06/18 13:54:10;;;;;;;3.13;1.05;;;;;;;;;;7395900;19;20022;-82
2022/06/18 13:56:37;;;;;;;2.75;1.20;;;;;;;;;;7393973;19;19995;-82
2022/06/18 13:59:03;;;;;;;3.90;1.13;;;;;;;;;;7395564;19;19995;-83
2022/06/18 14:01:42;;;;;;;3.30;1.27;;;;;;;;;;7391980;19;20014;-83
2022/06/18 14:04:20;;;;;;;4.97;1.10;;;;;;;;;;7395964;19;20011;-82
2022/06/18 14:06:49;;;;;;;4.88;1.50;;;;;;;;;;7391166;19;20023;-82
2022/06/18 14:09:22;;;;;;;5.78;1.52;;;;;;;;;;7394363;19;20049;-81
2022/06/18 14:12:07;;;;;;;3.97;1.42;;;;;;;;;;7393293;19;20014;-81
2022/06/18 14:14:35;;;;;;;4.70;1.08;;;;;;;;;;7394234;19;20173;-80
2022/06/18 14:17:08;;;;;;;4.15;1.20;;;;;;;;;;7388200;19;20435;-82
2022/06/18 14:19:38;;;;;;;6.55;1.10;;;;;;;;;;7393618;19;20006;-83
2022/06/18 14:22:18;;;;;;;5.72;1.10;;;;;;;;;;7394196;19;20027;-82
2022/06/18 14:24:48;;;;;;;5.30;1.10;;;;;;;;;;7393887;19;20017;-80
2022/06/18 14:27:22;;;;;;;7.05;1.40;;;;;;;;;;7394829;19;20058;-84
2022/06/18 14:29:48;;;;;;;2.92;1.08;;;;;;;;;;7394654;19;20062;-84
2022/06/18 14:32:48;;;;;;;3.25;1.58;;;;;;;;;;7391618;19;20057;-82
2022/06/18 14:35:29;;;;;;;4.32;1.17;;;;;;;;;;7390544;19;20133;-84
2022/06/18 14:37:55;;;;;;;2.95;1.20;;;;;;;;;;7391012;19;19994;-81
2022/06/18 14:40:31;;;;;;;3.38;1.70;;;;;;;;;;7392419;19;20013;-81
2022/06/18 14:43:15;;;;;;;3.88;1.40;;;;;;;;;;7391255;19;20014;-82
2022/06/18 14:45:47;;;;;;;;;;;;;;;;;;7392644;19;20014;-82
2022/06/18 14:48:40;;;;;;;2.42;1.30;;;;;;;;;;7390989;19;19922;-83
2022/06/18 14:51:24;;;;;;;4.35;1.23;;;;;;;;;;7393424;19;20010;-81
2022/06/18 14:54:10;;;;;;;3.30;1.13;;;;;;;;;;7390745;19;19991;-83
2022/06/18 14:56:55;;;;;;;3.88;1.30;;;;;;;;;;7389142;19;21153;-82
2022/06/18 14:59:43;;;;;;;4.65;1.25;;;;;;;;;;7390394;19;20048;-83
2022/06/18 15:02:24;;;;;;;4.15;1.20;;;;;;;;;;7387438;19;20031;-81
2022/06/18 15:04:56;;;;;;;2.28;1.00;;;;;;;;;;7394390;19;20014;-82
2022/06/18 15:07:29;;;;;;;5.65;1.40;;;;;;;;;;7394267;19;20006;-82
2022/06/18 15:09:54;;;;;;;4.15;1.17;;;;;;;;;;7394213;19;20002;-85
2022/06/18 15:12:20;;;;;;;4.45;1.42;;;;;;;;;;7391531;19;20456;-83
2022/06/18 15:14:51;;;;;;;2.75;1.27;;;;;;;;;;7393364;19;20070;-82
2022/06/18 15:20:06;;;;;;;2.25;1.30;;;;;;;;;;7394022;19;20342;-80
2022/06/18 15:22:56;;;;;;;8.70;2.08;;;;;;;;;;7390007;19;20425;-81
2022/06/18 15:25:42;;;;;;;7.47;1.45;;;;;;;;;;7389752;19;20127;-79
2022/06/18 15:28:11;;;;;;;9.07;2.10;;;;;;;;;;7387788;19;19998;-78
2022/06/18 15:30:42;;;;;;;8.25;1.50;;;;;;;;;;7388462;19;20005;-79
2022/06/18 15:33:11;;;;;;;3.05;1.38;;;;;;;;;;7388938;19;20026;-79
2022/06/18 15:35:41;;;;;;;3.60;1.25;;;;;;;;;;7389769;19;20465;-81
2022/06/18 15:38:21;;;;;;;4.63;1.40;;;;;;;;;;7389773;19;20009;-77
2022/06/18 15:41:09;;;;;;;6.40;1.80;;;;;;;;;;7388683;19;20105;-81